createdAt,value
2019-06-21T00:01:26.515Z,19.30
2019-06-21T00:05:29.503Z,19.20
2019-06-21T00:09:32.494Z,19.40
2019-06-21T00:13:35.493Z,19.40
2019-06-21T00:17:38.537Z,19.40
2019-06-21T00:21:41.676Z,19.40
2019-06-21T00:25:44.786Z,19.50
2019-06-21T00:29:47.805Z,19.60
2019-06-21T00:33:50.896Z,19.70
2019-06-21T00:37:54.043Z,19.30
2019-06-21T00:41:57.065Z,19.30
2019-06-21T00:46:00.101Z,19.30
2019-06-21T00:50:05.817Z,19.30
2019-06-21T00:54:08.813Z,19.50
2019-06-21T00:58:11.904Z,19.50
2019-06-21T01:02:15.024Z,19.50
2019-06-21T01:06:18.025Z,19.50
2019-06-21T01:10:21.734Z,19.50
2019-06-21T01:14:24.735Z,19.50
2019-06-21T01:18:27.736Z,19.50
2019-06-21T01:22:30.729Z,19.40
2019-06-21T01:26:33.842Z,19.30
2019-06-21T01:30:40.827Z,19.30
2019-06-21T01:34:44.019Z,19.20
2019-06-21T01:38:47.561Z,19.10
2019-06-21T01:42:50.555Z,19.10
2019-06-21T01:46:53.565Z,18.90
2019-06-21T01:50:56.586Z,18.80
2019-06-21T01:54:59.598Z,18.50
2019-06-21T01:59:02.823Z,18.50
2019-06-21T02:03:05.859Z,18.70
2019-06-21T02:07:08.867Z,18.80
2019-06-21T02:11:17.409Z,18.90
2019-06-21T02:15:22.319Z,19.00
2019-06-21T02:19:25.330Z,18.90
2019-06-21T02:23:28.359Z,19.00
2019-06-21T02:27:31.429Z,19.10
2019-06-21T02:31:34.483Z,19.20
2019-06-21T02:35:37.589Z,19.20
2019-06-21T02:39:40.883Z,19.30
2019-06-21T02:43:43.973Z,19.30
2019-06-21T02:47:46.994Z,19.20
2019-06-21T02:51:50.191Z,19.30
2019-06-21T02:55:53.683Z,19.10
2019-06-21T02:59:56.904Z,19.30
2019-06-21T03:03:59.949Z,19.30
2019-06-21T03:08:03.285Z,19.10
2019-06-21T03:12:06.291Z,18.90
2019-06-21T03:16:09.302Z,18.90
2019-06-21T03:20:12.518Z,19.00
2019-06-21T03:24:15.545Z,19.10
2019-06-21T03:28:18.579Z,19.00
2019-06-21T03:32:21.587Z,18.90
2019-06-21T03:36:24.702Z,18.80
2019-06-21T03:40:27.935Z,18.70
2019-06-21T03:44:30.955Z,18.50
2019-06-21T03:48:33.979Z,18.50
2019-06-21T03:52:37.006Z,18.60
2019-06-21T03:56:40.124Z,18.50
2019-06-21T04:00:43.145Z,18.80
2019-06-21T04:04:46.156Z,18.80
2019-06-21T04:08:49.166Z,18.80
2019-06-21T04:12:52.183Z,18.80
2019-06-21T04:16:55.189Z,18.90
2019-06-21T04:20:58.296Z,18.80
2019-06-21T04:25:01.479Z,18.60
2019-06-21T04:29:04.477Z,18.80
2019-06-21T04:33:07.484Z,18.80
2019-06-21T04:37:10.500Z,19.10
2019-06-21T04:41:15.385Z,19.30
2019-06-21T04:45:19.616Z,19.40
2019-06-21T04:49:22.780Z,19.60
2019-06-21T04:53:25.822Z,19.60
2019-06-21T04:57:28.835Z,19.80
2019-06-21T05:01:31.857Z,19.70
2019-06-21T05:05:34.884Z,20.10
2019-06-21T05:09:42.471Z,20.40
2019-06-21T05:13:45.480Z,20.60
2019-06-21T05:17:48.498Z,20.50
2019-06-21T05:21:53.356Z,20.50
2019-06-21T05:25:56.491Z,20.80
2019-06-21T05:29:59.511Z,21.30
2019-06-21T05:34:02.759Z,22.10
2019-06-21T05:38:05.774Z,22.90
2019-06-21T05:42:10.901Z,23.70
2019-06-21T05:46:13.912Z,24.10
2019-06-21T05:50:17.245Z,24.10
2019-06-21T05:54:20.294Z,24.20
2019-06-21T05:58:23.295Z,23.40
2019-06-21T06:02:26.370Z,23.90
2019-06-21T06:06:43.868Z,23.80
2019-06-21T06:10:34.313Z,23.50
2019-06-21T06:14:37.614Z,23.40
2019-06-21T06:18:40.623Z,23.60
2019-06-21T06:22:44.734Z,24.00
2019-06-21T06:26:49.837Z,24.30
2019-06-21T06:30:53.253Z,24.50
2019-06-21T06:34:59.440Z,24.50
2019-06-21T06:39:05.365Z,24.50
2019-06-21T06:43:11.879Z,24.40
2019-06-21T06:47:15.912Z,24.50
2019-06-21T06:51:18.923Z,24.60
2019-06-21T06:55:21.970Z,24.50
2019-06-21T06:59:24.989Z,24.70
2019-06-21T07:03:28.079Z,24.90
2019-06-21T07:07:31.170Z,24.70
2019-06-21T07:11:38.940Z,24.70
2019-06-21T07:15:39.308Z,24.40
2019-06-21T07:19:43.374Z,24.20
2019-06-21T07:23:46.384Z,24.10
2019-06-21T07:27:49.464Z,24.40
2019-06-21T07:31:53.699Z,24.00
2019-06-21T07:35:56.738Z,24.10
2019-06-21T07:40:00.518Z,24.30
2019-06-21T07:44:04.809Z,24.20
2019-06-21T07:48:07.814Z,24.10
2019-06-21T07:52:10.831Z,23.80
2019-06-21T07:56:13.842Z,23.90
2019-06-21T08:00:16.860Z,23.90
2019-06-21T08:04:19.877Z,23.60
2019-06-21T08:08:22.898Z,23.60
2019-06-21T08:12:25.954Z,23.70
2019-06-21T08:16:28.973Z,23.80
2019-06-21T08:20:31.989Z,25.50
2019-06-21T08:24:35.008Z,26.10
2019-06-21T08:28:38.080Z,26.80
2019-06-21T08:32:41.357Z,28.00
2019-06-21T08:36:44.379Z,29.80
2019-06-21T08:40:48.444Z,31.00
2019-06-21T08:44:53.499Z,32.30
2019-06-21T08:48:56.968Z,33.00
2019-06-21T08:53:00.060Z,33.10
2019-06-21T08:57:03.494Z,32.40
2019-06-21T09:01:07.724Z,30.10
2019-06-21T09:05:12.558Z,29.00
2019-06-21T09:09:16.470Z,27.90
2019-06-21T09:13:20.386Z,27.80
2019-06-21T09:17:23.738Z,27.20
2019-06-21T09:21:27.875Z,26.70
2019-06-21T09:25:30.975Z,26.20
2019-06-21T09:29:34.043Z,25.70
2019-06-21T09:33:37.087Z,27.30
2019-06-21T09:37:40.270Z,29.50
2019-06-21T09:41:43.259Z,31.60
2019-06-21T09:45:47.832Z,33.00
2019-06-21T09:49:50.901Z,34.50
2019-06-21T09:53:53.998Z,34.60
2019-06-21T09:57:57.013Z,33.20
2019-06-21T10:02:01.567Z,33.00
2019-06-21T10:06:06.154Z,31.90
2019-06-21T10:10:14.330Z,31.00
2019-06-21T10:14:14.348Z,30.50
2019-06-21T10:18:17.416Z,30.10
2019-06-21T10:22:21.536Z,29.50
2019-06-21T10:26:24.815Z,28.90
2019-06-21T10:30:27.991Z,30.40
2019-06-21T10:34:31.100Z,32.50
2019-06-21T10:38:34.185Z,32.80
2019-06-21T10:42:37.200Z,31.40
2019-06-21T10:46:40.959Z,30.10
2019-06-21T10:50:46.637Z,29.70
2019-06-21T10:54:49.928Z,29.20
2019-06-21T10:58:54.391Z,29.60
2019-06-21T11:02:59.405Z,29.90
2019-06-21T11:07:04.916Z,31.30
2019-06-21T11:11:08.046Z,32.20
2019-06-21T11:15:12.976Z,31.30
2019-06-21T11:19:15.994Z,31.40
2019-06-21T11:23:19.243Z,31.90
2019-06-21T11:27:22.505Z,32.40
2019-06-21T11:31:25.513Z,32.60
2019-06-21T11:35:28.523Z,32.70
2019-06-21T11:39:31.597Z,33.80
2019-06-21T11:43:34.613Z,33.30
2019-06-21T11:47:38.777Z,33.40
2019-06-21T11:51:41.807Z,32.60
2019-06-21T11:55:44.919Z,31.60
2019-06-21T11:59:48.049Z,32.40
2019-06-21T12:03:51.078Z,32.50
2019-06-21T12:07:54.484Z,33.20
2019-06-21T12:11:57.951Z,33.70
2019-06-21T12:16:05.008Z,33.30
2019-06-21T12:20:10.472Z,32.00
2019-06-21T12:24:13.574Z,30.60
2019-06-21T12:28:16.688Z,29.50
2019-06-21T12:32:20.006Z,29.10
2019-06-21T12:36:23.124Z,28.80
2019-06-21T12:40:26.135Z,28.00
2019-06-21T12:44:29.143Z,28.00
2019-06-21T12:48:33.723Z,27.70
2019-06-21T12:52:36.842Z,28.70
2019-06-21T12:56:39.864Z,29.70
2019-06-21T13:00:42.874Z,29.20
2019-06-21T13:04:49.955Z,29.10
2019-06-21T13:08:51.084Z,29.60
2019-06-21T13:12:54.102Z,29.20
2019-06-21T13:17:00.196Z,29.70
2019-06-21T13:21:04.147Z,30.10
2019-06-21T13:25:10.505Z,30.20
2019-06-21T13:29:13.660Z,30.60
2019-06-21T13:33:16.747Z,30.90
2019-06-21T13:37:19.850Z,29.90
2019-06-21T13:41:22.945Z,30.50
2019-06-21T13:45:26.113Z,30.70
2019-06-21T13:49:30.311Z,29.70
2019-06-21T13:53:33.433Z,29.20
2019-06-21T13:57:36.731Z,29.00
2019-06-21T14:01:39.896Z,29.20
2019-06-21T14:05:42.973Z,28.80
2019-06-21T14:09:47.549Z,29.10
2019-06-21T14:13:50.915Z,29.40
2019-06-21T14:17:54.018Z,30.20
2019-06-21T14:21:58.553Z,30.10
2019-06-21T14:26:11.876Z,30.70
2019-06-21T14:30:15.401Z,30.70
2019-06-21T14:34:18.451Z,30.70
2019-06-21T14:38:21.549Z,30.50
2019-06-21T14:42:24.617Z,30.60
2019-06-21T14:46:27.652Z,30.50
2019-06-21T14:50:32.114Z,29.90
2019-06-21T14:54:35.174Z,29.60
2019-06-21T14:58:38.187Z,29.90
2019-06-21T15:02:41.220Z,29.90
2019-06-21T15:06:44.256Z,29.90
2019-06-21T15:10:47.251Z,29.70
2019-06-21T15:14:50.386Z,29.70
2019-06-21T15:18:53.958Z,29.30
2019-06-21T15:22:59.571Z,28.90
2019-06-21T15:27:04.411Z,29.10
2019-06-21T15:31:07.527Z,29.10
2019-06-21T15:35:10.777Z,29.50
2019-06-21T15:39:13.796Z,29.40
2019-06-21T15:43:16.814Z,28.90
2019-06-21T15:47:19.958Z,29.30
2019-06-21T15:51:25.786Z,29.10
2019-06-21T15:55:31.064Z,28.90
2019-06-21T15:59:34.176Z,29.20
2019-06-21T16:03:37.333Z,29.00
2019-06-21T16:07:40.487Z,28.40
2019-06-21T16:11:43.492Z,28.30
2019-06-21T16:15:46.558Z,28.60
2019-06-21T16:19:49.669Z,28.40
2019-06-21T16:23:52.903Z,28.40
2019-06-21T16:27:56.003Z,28.30
2019-06-21T16:31:59.144Z,28.00
2019-06-21T16:36:02.549Z,28.00
2019-06-21T16:40:06.042Z,27.90
2019-06-21T16:44:09.199Z,27.80
2019-06-21T16:48:12.213Z,27.70
2019-06-21T16:52:16.891Z,27.60
2019-06-21T16:56:19.897Z,27.80
2019-06-21T17:00:41.634Z,27.60
2019-06-21T17:04:44.662Z,27.70
2019-06-21T17:08:47.772Z,27.80
2019-06-21T17:12:50.884Z,27.90
2019-06-21T17:16:53.882Z,28.00
2019-06-21T17:20:57.990Z,27.80
2019-06-21T17:25:01.369Z,27.40
2019-06-21T17:29:04.352Z,26.80
2019-06-21T17:33:07.899Z,26.50
2019-06-21T17:37:11.740Z,26.50
2019-06-21T17:41:14.860Z,26.40
2019-06-21T17:45:18.281Z,26.20
2019-06-21T17:49:21.342Z,26.10
2019-06-21T17:53:26.351Z,25.90
2019-06-21T17:57:29.409Z,25.60
2019-06-21T18:01:33.509Z,25.50
2019-06-21T18:05:36.740Z,25.40
2019-06-21T18:09:40.015Z,25.50
2019-06-21T18:13:43.335Z,25.60
2019-06-21T18:17:54.880Z,25.50
2019-06-21T18:21:51.370Z,25.40
2019-06-21T18:25:54.367Z,25.30
2019-06-21T18:29:57.407Z,25.20
2019-06-21T18:34:00.404Z,25.10
2019-06-21T18:38:04.415Z,25.10
2019-06-21T18:42:07.454Z,25.10
2019-06-21T18:46:10.529Z,24.90
2019-06-21T18:50:13.751Z,24.90
2019-06-21T18:54:17.668Z,25.10
2019-06-21T18:58:20.816Z,25.00
2019-06-21T19:02:24.005Z,24.80
2019-06-21T19:06:27.167Z,24.60
2019-06-21T19:10:30.248Z,24.30
2019-06-21T19:14:33.283Z,24.20
2019-06-21T19:18:36.405Z,24.30
2019-06-21T19:22:39.461Z,24.10
2019-06-21T19:26:42.481Z,24.10
2019-06-21T19:30:45.586Z,24.00
2019-06-21T19:34:48.612Z,23.70
2019-06-21T19:38:51.673Z,23.70
2019-06-21T19:42:54.694Z,23.50
2019-06-21T19:46:57.698Z,23.50
2019-06-21T19:51:00.731Z,23.40
2019-06-21T19:55:06.200Z,23.40
2019-06-21T19:59:09.262Z,23.20
2019-06-21T20:03:12.350Z,23.10
2019-06-21T20:07:15.470Z,23.00
2019-06-21T20:11:18.483Z,22.90
2019-06-21T20:15:25.327Z,22.80
2019-06-21T20:19:28.349Z,22.70
2019-06-21T20:23:31.374Z,22.60
2019-06-21T20:27:34.437Z,22.70
2019-06-21T20:31:37.546Z,22.90
2019-06-21T20:35:40.674Z,23.00
2019-06-21T20:39:43.852Z,23.10
2019-06-21T20:43:46.900Z,23.10
2019-06-21T20:47:49.978Z,23.10
2019-06-21T20:51:53.038Z,23.10
2019-06-21T20:55:57.724Z,23.20
2019-06-21T21:00:01.081Z,23.20
2019-06-21T21:04:04.289Z,23.20
2019-06-21T21:08:07.385Z,23.20
2019-06-21T21:12:10.564Z,22.90
2019-06-21T21:16:13.710Z,22.70
2019-06-21T21:20:16.786Z,22.40
2019-06-21T21:24:19.880Z,22.20
2019-06-21T21:28:22.893Z,21.90
2019-06-21T21:32:25.996Z,21.90
2019-06-21T21:36:29.255Z,21.90
2019-06-21T21:40:32.495Z,21.90
2019-06-21T21:44:35.501Z,21.60
2019-06-21T21:48:38.513Z,21.20
2019-06-21T21:52:41.534Z,20.80
2019-06-21T21:56:45.562Z,20.70
2019-06-21T22:00:50.877Z,20.60
2019-06-21T22:04:53.893Z,20.40
2019-06-21T22:08:56.897Z,20.30
2019-06-21T22:13:00.025Z,20.10
2019-06-21T22:17:03.153Z,20.10
2019-06-21T22:21:06.165Z,20.10
2019-06-21T22:25:09.176Z,19.90
2019-06-21T22:29:12.186Z,20.00
2019-06-21T22:33:15.206Z,19.90
2019-06-21T22:37:18.294Z,19.70
2019-06-21T22:41:21.348Z,19.90
2019-06-21T22:45:24.361Z,20.00
2019-06-21T22:49:27.369Z,20.10
2019-06-21T22:53:30.410Z,20.00
2019-06-21T22:57:34.689Z,19.70
2019-06-21T23:01:37.694Z,19.50
2019-06-21T23:05:40.720Z,19.30
2019-06-21T23:09:43.752Z,19.30
2019-06-21T23:13:46.797Z,19.30
2019-06-21T23:17:49.791Z,19.40
2019-06-21T23:21:52.856Z,19.30
2019-06-21T23:25:56.567Z,19.40
2019-06-21T23:30:02.024Z,19.30
2019-06-21T23:34:05.147Z,19.40
2019-06-21T23:38:08.155Z,19.30
2019-06-21T23:42:11.164Z,19.30
2019-06-21T23:46:14.168Z,19.30
2019-06-21T23:50:17.188Z,19.20
2019-06-21T23:54:20.277Z,19.30
2019-06-21T23:58:23.673Z,19.10
